Time;durP1;ratioP1;P1;durP2;ratioP2;P2;SDS_P1;SDS_P2;PMS_P1;PMS_P2;Temp;Humidity;BMP_temperature;BMP_pressure;BME280_temperature;BME280_humidity;BME280_pressure;Samples;Min_cycle;Max_cycle;Signal;HPM_P1;HPM_P2
2022/01/17 00:00:08;;;;;;;112.17;52.70;;;1.00;81.80;;;0.65;59.54;95499.47;5075533;28;21092;-58
2022/01/17 00:02:36;;;;;;;118.53;54.73;;;1.00;81.50;;;0.64;59.29;95495.19;5076256;28;20532;-57
2022/01/17 00:05:04;;;;;;;116.10;51.87;;;1.00;81.80;;;0.61;58.29;95497.91;5077515;28;20802;-58
2022/01/17 00:07:31;;;;;;;128.27;50.23;;;1.00;81.30;;;0.58;59.37;95495.44;5072615;28;20446;-57
2022/01/17 00:10:00;;;;;;;118.83;50.80;;;0.90;81.50;;;0.58;58.94;95497.19;5075791;28;20462;-56
2022/01/17 00:12:30;;;;;;;113.67;51.50;;;0.90;81.60;;;0.55;59.94;95500.75;5076967;28;20447;-57
2022/01/17 00:14:59;;;;;;;110.47;51.03;;;0.90;81.50;;;0.53;59.54;95499.97;5073821;28;21017;-57
2022/01/17 00:17:35;;;;;;;111.67;51.97;;;0.90;81.40;;;0.52;59.15;95506.03;5077316;28;20982;-58
2022/01/17 00:20:10;;;;;;;119.77;50.70;;;0.90;81.60;;;0.49;59.89;95503.59;5080740;28;20445;-58
2022/01/17 00:22:39;;;;;;;104.50;48.70;;;0.80;81.60;;;0.48;58.89;95501.88;5079723;28;20449;-56
2022/01/17 00:25:07;;;;;;;93.23;48.20;;;0.80;81.60;;;0.47;59.34;95495.88;5078773;28;20450;-58
2022/01/17 00:27:35;;;;;;;108.93;48.67;;;0.80;81.80;;;0.46;58.89;95514.91;5081602;28;20446;-57
2022/01/17 00:30:03;;;;;;;103.83;47.67;;;0.80;81.60;;;0.45;59.29;95509.78;5081118;28;20550;-57
2022/01/17 00:32:32;;;;;;;108.17;50.20;;;0.80;81.60;;;0.43;59.88;95507.25;5083163;28;20457;-59
2022/01/17 00:34:59;;;;;;;110.63;49.17;;;0.80;81.80;;;0.42;59.06;95507.31;5075784;28;20804;-60
2022/01/17 00:37:27;;;;;;;109.83;49.70;;;0.80;81.80;;;0.39;59.17;95507.44;5079603;28;20533;-58
2022/01/17 00:39:54;;;;;;;134.10;56.00;;;0.70;81.70;;;0.35;59.14;95504.16;5074019;28;20459;-56
2022/01/17 00:42:21;;;;;;;172.83;68.83;;;0.70;82.00;;;0.33;59.31;95508.56;5078032;28;20477;-56
2022/01/17 00:44:49;;;;;;;143.70;62.90;;;0.70;81.90;;;0.28;59.84;95507.88;5074475;28;20447;-56
2022/01/17 00:47:16;;;;;;;124.70;55.77;;;0.70;82.20;;;0.25;59.88;95501.09;5080553;28;20499;-59
2022/01/17 00:49:45;;;;;;;138.53;59.77;;;0.60;82.90;;;0.25;59.16;95501.09;5077007;28;20462;-57
2022/01/17 00:52:12;;;;;;;143.67;58.10;;;0.60;82.50;;;0.24;60.03;95504.59;5075022;28;20450;-58
2022/01/17 00:54:40;;;;;;;141.43;57.00;;;0.60;82.70;;;0.23;60.05;95492.53;5075421;28;20458;-57
2022/01/17 00:57:08;;;;;;;136.07;55.70;;;0.60;83.00;;;0.21;60.04;95494.34;5077215;28;21326;-57
2022/01/17 00:59:36;;;;;;;131.37;54.27;;;0.60;83.10;;;0.18;60.07;95489.31;5073450;28;20562;-57
2022/01/17 01:02:04;;;;;;;110.90;49.57;;;0.60;83.00;;;0.17;60.21;95487.63;5074007;28;20477;-59
2022/01/17 01:04:31;;;;;;;107.03;51.00;;;0.50;82.90;;;0.16;59.74;95496.28;5073070;28;20454;-57
2022/01/17 01:07:05;;;;;;;131.73;52.27;;;0.50;83.40;;;0.16;60.51;95491.13;5080271;28;20477;-57
2022/01/17 01:09:40;;;;;;;113.93;50.70;;;0.50;83.40;;;0.18;60.07;95476.38;5079204;28;20454;-57
2022/01/17 01:12:09;;;;;;;134.03;53.10;;;0.50;83.10;;;0.20;60.35;95478.91;5081440;28;20474;-59
2022/01/17 01:14:40;;;;;;;141.30;58.23;;;0.50;83.10;;;0.20;60.49;95474.56;5078451;28;20478;-58
2022/01/17 01:17:18;;;;;;;134.90;59.97;;;0.60;83.40;;;0.19;60.13;95475.47;5075067;28;20497;-58
2022/01/17 01:19:56;;;;;;;121.73;54.87;;;0.60;83.40;;;0.20;60.32;95482.31;5073238;28;20443;-57
2022/01/17 01:27:58;;;;;;;127.20;56.03;;;0.60;83.30;;;0.22;59.67;95475.34;5046107;28;20535;-57
2022/01/17 01:30:28;;;;;;;131.23;57.93;;;0.60;83.70;;;0.22;60.39;95472.78;5078564;28;20791;-58
2022/01/17 01:32:58;;;;;;;144.90;60.50;;;0.60;83.80;;;0.21;60.81;95473.66;5077854;28;20982;-58
2022/01/17 01:35:28;;;;;;;148.77;63.37;;;0.50;84.40;;;0.17;60.49;95472.09;5077095;28;20588;-58
2022/01/17 01:37:59;;;;;;;148.03;62.63;;;0.50;83.70;;;0.18;60.34;95466.84;5080818;28;20442;-57
2022/01/17 01:40:27;;;;;;;157.27;66.30;;;0.50;83.40;;;0.20;60.09;95471.97;5077879;28;21136;-58
2022/01/17 01:42:55;;;;;;;158.70;64.63;;;0.60;83.40;;;0.20;59.55;95468.56;5077422;28;20451;-57
2022/01/17 01:45:22;;;;;;;150.00;64.17;;;0.50;83.10;;;0.18;60.30;95469.44;5078482;28;20573;-56
2022/01/17 01:47:50;;;;;;;143.00;62.00;;;0.60;83.50;;;0.16;60.41;95465.25;5080342;28;20466;-58
2022/01/17 01:50:18;;;;;;;152.37;62.13;;;0.50;83.80;;;0.15;60.01;95464.41;5073402;28;20474;-58
2022/01/17 01:52:46;;;;;;;137.33;60.27;;;0.50;83.10;;;0.15;60.54;95463.56;5080241;28;20536;-58
2022/01/17 01:55:17;;;;;;;136.37;56.13;;;0.50;83.50;;;0.13;60.14;95462.78;5077829;28;21069;-57
2022/01/17 01:57:45;;;;;;;125.63;54.13;;;0.50;83.40;;;0.10;59.79;95455.16;5079864;28;20442;-56
2022/01/17 02:00:14;;;;;;;122.53;55.00;;;0.40;83.20;;;0.05;60.14;95449.31;5075717;28;20557;-56
2022/01/17 02:02:41;;;;;;;123.23;57.80;;;0.40;82.90;;;0.01;59.76;95455.53;5077585;28;20450;-57
2022/01/17 02:05:09;;;;;;;125.37;53.23;;;0.40;83.00;;;-0.03;59.52;95457.41;5074999;28;20475;-57
2022/01/17 02:07:38;;;;;;;128.27;56.37;;;0.30;82.70;;;-0.05;60.13;95454.88;5072598;28;20447;-55
2022/01/17 02:10:07;;;;;;;140.87;59.87;;;0.30;83.20;;;-0.08;59.77;95447.25;5070953;28;20443;-57
2022/01/17 02:12:35;;;;;;;121.30;58.43;;;0.30;83.40;;;-0.12;60.40;95440.50;5071175;28;20483;-59
2022/01/17 02:15:05;;;;;;;139.67;59.87;;;0.30;83.50;;;-0.09;60.63;95444.72;5073117;28;20451;-58
2022/01/17 02:17:40;;;;;;;128.87;55.37;;;0.30;83.90;;;-0.11;60.46;95436.16;5074381;28;20451;-57
2022/01/17 02:20:12;;;;;;;140.50;59.17;;;0.20;83.80;;;-0.14;60.65;95438.88;5078131;28;20472;-57
2022/01/17 02:22:41;;;;;;;127.50;57.00;;;0.20;84.00;;;-0.13;60.43;95443.97;5075354;28;20543;-56
2022/01/17 02:25:09;;;;;;;124.90;54.63;;;0.20;84.10;;;-0.14;60.64;95441.47;5077210;28;20555;-58
2022/01/17 02:27:37;;;;;;;137.93;56.20;;;0.20;84.20;;;-0.12;60.04;95440.50;5076518;28;20986;-58
2022/01/17 02:30:05;;;;;;;140.77;57.63;;;0.20;84.10;;;-0.09;60.01;95442.97;5073177;28;20553;-57
2022/01/17 02:32:33;;;;;;;119.27;53.23;;;0.20;83.90;;;-0.09;60.84;95445.56;5074339;28;20486;-57
2022/01/17 02:35:18;;;;;;;137.97;56.17;;;0.20;84.40;;;-0.06;60.28;95435.09;5078643;28;20486;-57
2022/01/17 02:37:45;;;;;;;134.13;55.10;;;0.30;84.20;;;-0.06;60.72;95435.09;5074810;28;21070;-57
2022/01/17 02:40:14;;;;;;;108.50;52.20;;;0.30;84.30;;;-0.03;60.30;95440.13;5072764;28;20467;-58
2022/01/17 02:42:43;;;;;;;128.13;54.70;;;0.30;83.60;;;-0.02;60.51;95436.66;5074408;28;20465;-59
2022/01/17 02:45:20;;;;;;;131.83;54.37;;;0.30;83.70;;;-0.01;60.75;95432.31;5078646;28;21042;-57
2022/01/17 02:47:48;;;;;;;128.97;54.67;;;0.30;84.00;;;0.03;60.47;95441.63;5071979;28;20443;-57
2022/01/17 02:50:16;;;;;;;126.63;53.17;;;0.40;83.80;;;0.03;60.38;95438.19;5079011;28;20505;-58
2022/01/17 02:52:44;;;;;;;120.70;53.30;;;0.40;83.80;;;0.05;60.79;95433.78;5078151;28;21202;-56
2022/01/17 02:55:12;;;;;;;110.70;50.77;;;0.40;84.00;;;0.05;59.83;95442.41;5073688;28;20478;-57
2022/01/17 02:57:40;;;;;;;122.83;53.60;;;0.40;83.70;;;0.04;60.41;95435.56;5073732;28;20483;-58
2022/01/17 03:00:12;;;;;;;113.50;52.70;;;0.40;83.60;;;0.03;59.89;95426.09;5076616;28;20475;-58
2022/01/17 03:02:39;;;;;;;111.23;50.30;;;0.40;83.70;;;0.02;60.00;95421.00;5072129;28;20987;-57
2022/01/17 03:05:09;;;;;;;118.03;51.47;;;0.40;83.50;;;0.01;60.00;95415.00;5081460;28;20474;-58
2022/01/17 03:07:38;;;;;;;114.13;50.90;;;0.40;83.40;;;0.01;60.24;95414.16;5072802;28;20538;-57
2022/01/17 03:10:12;;;;;;;124.57;50.63;;;0.40;82.90;;;0.01;59.78;95421.91;5076342;28;20453;-57
2022/01/17 03:12:40;;;;;;;126.07;49.33;;;0.30;83.10;;;-0.02;59.38;95428.91;5077376;28;20591;-57
2022/01/17 03:15:09;;;;;;;103.53;46.80;;;0.30;83.00;;;-0.04;59.78;95422.09;5075031;28;20555;-56
2022/01/17 03:17:37;;;;;;;102.87;48.10;;;0.30;83.20;;;-0.04;59.68;95429.84;5073791;28;20594;-58
2022/01/17 03:20:05;;;;;;;111.47;48.07;;;0.30;82.80;;;-0.04;59.52;95430.69;5073442;28;20447;-58
2022/01/17 03:22:33;;;;;;;111.77;50.87;;;0.30;82.80;;;-0.05;59.31;95423.84;5076980;28;20454;-57
2022/01/17 03:25:01;;;;;;;121.10;50.37;;;0.30;82.70;;;-0.06;60.13;95418.75;5075438;28;20487;-57
2022/01/17 03:27:29;;;;;;;111.63;47.20;;;0.30;83.00;;;-0.08;59.41;95423.13;5073536;28;20447;-57
2022/01/17 03:29:56;;;;;;;114.10;48.40;;;0.30;82.70;;;-0.09;59.86;95426.63;5073950;28;20458;-56
2022/01/17 03:32:23;;;;;;;100.57;47.73;;;0.30;82.90;;;-0.09;59.36;95437.81;5073403;28;20474;-62
2022/01/17 03:34:50;;;;;;;110.97;48.97;;;0.30;82.90;;;-0.12;59.86;95439.69;5076204;28;20610;-57
2022/01/17 03:37:18;;;;;;;106.70;48.20;;;0.30;82.90;;;-0.12;59.51;95440.50;5075571;28;20560;-57
2022/01/17 03:39:45;;;;;;;104.80;48.57;;;0.20;82.60;;;-0.13;59.26;95443.16;5072824;28;20553;-57
2022/01/17 03:42:14;;;;;;;118.10;49.43;;;0.20;82.60;;;-0.14;59.39;95444.91;5072804;28;20455;-57
2022/01/17 03:44:42;;;;;;;110.50;49.50;;;0.20;82.90;;;-0.12;60.08;95444.84;5076832;28;20450;-57
2022/01/17 03:47:09;;;;;;;116.33;50.27;;;0.20;82.70;;;-0.13;59.90;95435.41;5077793;28;20838;-57
2022/01/17 03:49:36;;;;;;;113.27;50.20;;;0.20;82.70;;;-0.15;59.76;95445.78;5078220;28;20648;-58
2022/01/17 03:52:04;;;;;;;103.73;48.07;;;0.20;82.90;;;-0.16;59.96;95440.69;5075143;28;20470;-57
2022/01/17 03:54:32;;;;;;;105.67;49.20;;;0.20;83.10;;;-0.18;59.57;95445.91;5074278;28;20457;-57
2022/01/17 03:56:59;;;;;;;110.40;48.20;;;0.20;83.10;;;-0.18;59.67;95445.91;5073678;28;20582;-56
2022/01/17 03:59:28;;;;;;;101.90;45.97;;;0.20;82.90;;;-0.18;59.41;95451.09;5075061;28;20451;-56
2022/01/17 04:01:55;;;;;;;98.77;42.47;;;0.20;83.10;;;-0.17;59.82;95463.13;5076047;28;20475;-58
2022/01/17 04:04:23;;;;;;;100.50;41.03;;;0.20;83.10;;;-0.15;59.66;95453.56;5076529;28;20500;-57
2022/01/17 04:06:50;;;;;;;93.43;42.93;;;0.20;82.80;;;-0.14;59.65;95454.38;5072788;28;20478;-57
2022/01/17 04:09:17;;;;;;;95.07;41.73;;;0.20;82.70;;;-0.12;59.98;95455.19;5070366;28;20459;-56
2022/01/17 04:11:45;;;;;;;93.67;41.43;;;0.20;82.90;;;-0.12;59.95;95452.59;5074091;28;20463;-56
2022/01/17 04:14:12;;;;;;;72.53;35.47;;;0.20;82.60;;;-0.12;59.44;95444.84;5075045;28;20450;-56
2022/01/17 04:16:41;;;;;;;72.90;33.13;;;0.20;82.50;;;-0.13;59.24;95449.16;5077378;28;20517;-57
2022/01/17 04:19:10;;;;;;;74.47;31.30;;;0.20;82.00;;;-0.13;59.18;95446.56;5076608;28;20446;-56
2022/01/17 04:21:37;;;;;;;58.03;31.43;;;0.20;81.70;;;-0.12;59.13;95440.50;5073821;28;20497;-58
2022/01/17 04:24:05;;;;;;;59.50;29.50;;;0.20;81.80;;;-0.11;58.46;95439.63;5071637;28;20857;-57
2022/01/17 04:26:32;;;;;;;53.27;27.27;;;0.20;81.40;;;-0.12;59.00;95450.84;5072399;28;21059;-58
2022/01/17 04:28:59;;;;;;;52.90;27.23;;;0.20;81.10;;;-0.10;59.04;95443.88;5075112;28;20494;-57
2022/01/17 04:31:27;;;;;;;50.43;25.70;;;0.30;81.30;;;-0.07;59.00;95442.91;5071885;28;20471;-58
2022/01/17 04:33:56;;;;;;;69.40;25.37;;;0.30;81.30;;;-0.04;58.90;95437.63;5070958;28;20451;-58
2022/01/17 04:36:23;;;;;;;53.13;26.03;;;0.30;81.00;;;-0.05;58.22;95444.53;5075360;28;20978;-57
2022/01/17 04:38:51;;;;;;;59.10;26.33;;;0.30;80.30;;;-0.08;58.23;95444.66;5072338;28;20450;-58
2022/01/17 04:41:21;;;;;;;55.80;27.27;;;0.30;79.60;;;-0.11;58.16;95434.44;5070160;28;20471;-58
2022/01/17 04:46:32;;;;;;;79.50;37.37;;;0.20;79.70;;;-0.14;58.43;95434.56;5075484;28;20504;-57
2022/01/17 04:49:01;;;;;;;77.63;39.00;;;0.20;80.20;;;-0.17;58.69;95434.69;5075685;28;20465;-58
2022/01/17 04:51:28;;;;;;;90.93;38.20;;;0.20;80.50;;;-0.20;58.58;95424.47;5074948;28;20473;-59
2022/01/17 04:54:17;;;;;;;81.10;37.60;;;0.20;80.90;;;-0.24;58.40;95439.25;5072127;28;20982;-55
2022/01/17 04:56:44;;;;;;;72.53;36.87;;;0.20;81.00;;;-0.21;58.60;95436.53;5077218;28;20911;-59
2022/01/17 04:59:12;;;;;;;71.40;33.90;;;0.20;81.30;;;-0.19;59.25;95452.84;5082160;28;20496;-59
2022/01/17 05:01:39;;;;;;;75.33;36.90;;;0.20;81.60;;;-0.15;59.11;95456.13;5078275;28;20475;-60
2022/01/17 05:04:08;;;;;;;72.57;34.60;;;0.20;81.50;;;-0.13;58.63;95443.97;5078456;28;20469;-59
2022/01/17 05:06:35;;;;;;;69.00;31.80;;;0.20;81.60;;;-0.09;59.08;95439.56;5073310;28;20478;-58
2022/01/17 05:09:03;;;;;;;76.97;35.43;;;0.30;81.80;;;-0.08;59.19;95430.88;5077584;28;20477;-56
2022/01/17 05:11:31;;;;;;;77.97;34.97;;;0.30;81.40;;;-0.06;59.11;95435.09;5074910;28;20845;-61
2022/01/17 05:14:01;;;;;;;83.83;37.60;;;0.30;81.40;;;-0.05;59.13;95436.78;5077861;28;20447;-56
2022/01/17 05:16:34;;;;;;;72.07;34.83;;;0.30;81.30;;;-0.05;58.99;95433.34;5076289;28;20597;-58
2022/01/17 05:21:48;;;;;;;77.60;36.33;;;0.30;81.30;;;-0.05;58.95;95447.13;5075667;28;20547;-57
2022/01/17 05:24:15;;;;;;;62.67;31.70;;;0.30;81.20;;;-0.05;58.30;95436.78;5075363;28;20458;-58
2022/01/17 05:26:42;;;;;;;67.27;33.33;;;0.30;80.90;;;-0.05;58.35;95443.69;5077063;28;20566;-58
2022/01/17 05:29:10;;;;;;;68.77;31.63;;;0.30;80.90;;;-0.05;58.42;95446.25;5077204;28;20458;-58
2022/01/17 05:31:37;;;;;;;68.30;32.30;;;0.30;81.10;;;-0.06;58.44;95442.84;5071371;28;20482;-56
2022/01/17 05:34:04;;;;;;;69.83;33.13;;;0.30;80.90;;;-0.06;58.38;95437.69;5074086;28;20447;-57
2022/01/17 05:36:32;;;;;;;52.20;26.13;;;0.30;80.70;;;-0.05;57.83;95423.84;5074191;28;20483;-57
2022/01/17 05:39:01;;;;;;;61.57;29.30;;;0.30;80.80;;;-0.05;58.46;95421.28;5079347;28;20497;-57
2022/01/17 05:41:28;;;;;;;51.73;26.97;;;0.30;80.40;;;-0.05;57.93;95428.16;5078015;28;20536;-57
2022/01/17 05:43:55;;;;;;;59.57;23.73;;;0.30;80.50;;;-0.05;58.26;95449.72;5072783;28;20457;-57
2022/01/17 05:46:23;;;;;;;51.83;25.90;;;0.30;79.80;;;-0.04;57.79;95438.44;5071226;28;20466;-57
2022/01/17 05:48:50;;;;;;;56.03;24.57;;;0.30;79.60;;;-0.03;57.70;95450.47;5077826;28;20481;-57
2022/01/17 05:51:18;;;;;;;47.63;23.10;;;0.30;79.60;;;-0.03;57.47;95452.25;5075609;28;20559;-56
2022/01/17 05:53:45;;;;;;;56.77;24.20;;;0.30;79.60;;;-0.04;57.29;95459.13;5077015;28;20463;-57
2022/01/17 05:56:14;;;;;;;53.30;22.67;;;0.30;79.00;;;-0.03;57.32;95463.41;5076236;28;20481;-57
2022/01/17 05:58:41;;;;;;;48.20;21.33;;;0.30;79.10;;;-0.02;57.91;95452.19;5078530;28;20461;-59
2022/01/17 06:01:09;;;;;;;47.43;23.20;;;0.30;79.50;;;0.01;58.14;95464.13;5076936;28;20864;-57
2022/01/17 06:03:36;;;;;;;47.37;21.40;;;0.30;79.10;;;0.03;57.52;95472.66;5075711;28;20466;-57
2022/01/17 06:06:06;;;;;;;56.53;23.17;;;0.30;78.80;;;0.07;57.18;95457.88;5074234;28;20873;-58
2022/01/17 06:08:33;;;;;;;44.53;21.47;;;0.40;78.60;;;0.15;57.35;95458.41;5074752;28;20552;-58
2022/01/17 06:11:01;;;;;;;43.30;21.60;;;0.40;78.90;;;0.28;56.67;95461.31;5073773;28;20478;-57
2022/01/17 06:13:30;;;;;;;45.80;22.83;;;0.50;78.40;;;0.39;56.29;95455.69;5076230;28;20447;-57
2022/01/17 06:15:58;;;;;;;53.80;23.60;;;0.70;77.90;;;0.52;56.21;95467.22;5074194;28;20478;-57
2022/01/17 06:18:25;;;;;;;48.13;23.50;;;0.80;77.30;;;0.71;56.52;95468.16;5075297;28;20497;-58
2022/01/17 06:20:52;;;;;;;51.00;23.80;;;0.90;77.20;;;1.01;55.89;95469.47;5079876;28;20475;-57
2022/01/17 06:23:21;;;;;;;54.33;23.93;;;1.20;77.50;;;1.35;55.66;95462.78;5078107;28;20510;-57
2022/01/17 06:25:48;;;;;;;46.40;22.27;;;1.40;76.80;;;1.70;55.64;95458.56;5075199;28;20539;-58
2022/01/17 06:28:15;;;;;;;50.37;24.00;;;1.80;76.30;;;2.17;54.98;95461.56;5076873;28;20455;-57
2022/01/17 06:30:44;;;;;;;47.60;23.97;;;2.20;76.50;;;2.66;54.30;95459.97;5075720;28;20474;-56
2022/01/17 06:33:11;;;;;;;46.50;22.23;;;2.80;75.60;;;3.15;53.55;95464.44;5072145;28;20507;-55
2022/01/17 06:35:39;;;;;;;47.97;23.60;;;3.30;74.30;;;3.62;52.98;95464.59;5078468;28;20479;-59
2022/01/17 06:38:07;;;;;;;56.87;24.73;;;3.70;73.60;;;4.09;52.17;95464.59;5072420;28;20492;-58
2022/01/17 06:40:34;;;;;;;57.43;23.20;;;4.20;72.60;;;4.59;50.94;95473.06;5079437;28;20829;-60
2022/01/17 06:43:04;;;;;;;47.10;24.37;;;4.70;70.40;;;5.11;50.48;95479.59;5075713;28;20983;-59
2022/01/17 06:45:32;;;;;;;38.07;18.67;;;5.30;69.40;;;5.66;49.07;95479.78;5078322;28;21001;-58
2022/01/17 06:48:01;;;;;;;34.83;16.40;;;5.90;66.20;;;6.24;48.90;95472.69;5075161;28;20466;-57
2022/01/17 06:50:28;;;;;;;33.03;14.67;;;6.50;65.90;;;6.83;47.91;95477.56;5078220;28;20471;-58
2022/01/17 06:52:56;;;;;;;36.97;15.50;;;7.10;63.80;;;7.39;45.91;95485.16;5073788;28;20959;-57
2022/01/17 06:55:23;;;;;;;25.27;13.63;;;7.70;60.30;;;7.92;45.80;95478.88;5077326;28;20474;-56
2022/01/17 06:57:50;;;;;;;32.67;12.70;;;8.20;60.30;;;8.46;45.54;95481.16;5070937;28;20490;-57
2022/01/17 07:00:18;;;;;;;22.27;11.10;;;8.80;60.10;;;9.02;45.04;95471.84;5072750;28;20549;-59
2022/01/17 07:02:45;;;;;;;23.50;11.50;;;9.30;58.20;;;9.56;43.70;95480.84;5072247;28;20461;-57
2022/01/17 07:05:14;;;;;;;24.87;11.47;;;9.90;57.10;;;10.04;42.10;95480.63;5078834;28;20501;-59
2022/01/17 07:07:42;;;;;;;22.40;11.30;;;10.40;53.50;;;10.47;42.53;95465.84;5070753;28;20451;-58
2022/01/17 07:10:10;;;;;;;16.20;7.93;;;10.80;54.10;;;10.92;40.23;95470.91;5079566;28;20473;-57
2022/01/17 07:12:37;;;;;;;24.20;9.43;;;11.20;50.60;;;11.38;40.75;95477.59;5077136;28;20458;-59
2022/01/17 07:15:05;;;;;;;21.50;8.70;;;11.70;51.20;;;11.85;39.93;95487.72;5072080;28;20458;-57
2022/01/17 07:17:32;;;;;;;15.53;8.20;;;12.10;50.20;;;12.26;38.61;95471.91;5073364;28;20494;-57
2022/01/17 07:19:59;;;;;;;14.93;7.50;;;12.60;49.10;;;12.65;40.04;95479.88;5070584;28;20516;-57
2022/01/17 07:22:29;;;;;;;12.40;7.70;;;13.00;50.00;;;13.00;38.69;95483.81;5069471;28;20458;-57
2022/01/17 07:24:57;;;;;;;18.17;7.60;;;13.40;47.80;;;13.33;39.31;95486.97;5077867;28;20600;-56
2022/01/17 07:27:24;;;;;;;13.53;8.73;;;13.80;49.50;;;13.62;38.99;95500.16;5074341;28;20446;-59
2022/01/17 07:29:52;;;;;;;12.60;7.03;;;14.20;48.90;;;13.87;38.16;95489.91;5074933;28;20460;-56
2022/01/17 07:32:19;;;;;;;13.50;6.67;;;14.50;48.10;;;14.12;37.29;95477.84;5069366;28;20471;-57
2022/01/17 07:34:47;;;;;;;14.17;7.67;;;14.90;46.60;;;14.42;35.51;95489.09;5073470;28;20547;-58
2022/01/17 07:37:14;;;;;;;18.93;9.50;;;15.20;44.10;;;14.76;34.56;95483.19;5074444;28;20990;-55
2022/01/17 07:39:44;;;;;;;20.50;7.97;;;15.40;42.20;;;15.11;35.37;95468.28;5074931;28;20450;-57
2022/01/17 07:42:12;;;;;;;18.00;8.43;;;15.70;43.20;;;15.40;34.57;95460.06;5074760;28;20483;-56
2022/01/17 07:44:42;;;;;;;18.10;7.07;;;15.90;42.80;;;15.67;34.43;95458.25;5070999;28;20566;-58
2022/01/17 07:47:16;;;;;;;18.37;7.83;;;16.00;42.20;;;15.82;34.11;95456.69;5072021;28;20792;-57
2022/01/17 07:49:45;;;;;;;12.53;6.30;;;16.10;42.10;;;15.92;33.65;95467.19;5079892;28;20795;-58
2022/01/17 07:52:12;;;;;;;17.40;7.73;;;16.10;41.50;;;16.02;33.24;95465.25;5074512;28;20578;-57
2022/01/17 07:54:43;;;;;;;15.13;6.60;;;16.10;40.90;;;16.12;32.63;95473.09;5072442;28;20852;-57
2022/01/17 07:57:13;;;;;;;14.63;6.60;;;16.10;39.80;;;16.27;33.06;95494.56;5076459;28;20861;-59
2022/01/17 07:59:40;;;;;;;24.83;7.30;;;16.10;41.10;;;16.45;32.77;95524.50;5073946;28;20553;-58
2022/01/17 08:02:07;;;;;;;21.23;8.20;;;16.20;40.50;;;16.60;32.90;95555.75;5072277;28;20470;-56
2022/01/17 08:04:35;;;;;;;16.40;6.87;;;16.40;40.90;;;16.70;32.81;95543.19;5074390;28;20558;-57
2022/01/17 08:07:04;;;;;;;10.43;5.70;;;16.50;40.20;;;16.81;31.77;95531.44;5075258;28;20466;-58
2022/01/17 08:09:33;;;;;;;15.50;5.20;;;16.60;39.30;;;16.94;30.91;95517.69;5074079;28;20457;-56
2022/01/17 08:12:01;;;;;;;7.63;5.20;;;16.70;38.00;;;17.05;31.08;95469.53;5075592;28;20476;-56
2022/01/17 08:14:29;;;;;;;23.53;6.57;;;16.80;38.10;;;17.17;31.43;95454.94;5072904;28;20951;-56
2022/01/17 08:16:57;;;;;;;9.87;6.00;;;16.90;38.70;;;17.08;30.11;95431.19;5074072;28;20467;-58
2022/01/17 08:19:25;;;;;;;19.10;6.00;;;16.80;37.30;;;16.91;31.11;95451.59;5074842;28;20461;-57
2022/01/17 08:21:52;;;;;;;10.40;4.57;;;16.70;38.80;;;16.80;28.89;95434.94;5074235;28;20501;-59
2022/01/17 08:24:20;;;;;;;16.07;5.60;;;16.60;36.00;;;16.69;30.16;95443.22;5074409;28;20478;-58
2022/01/17 08:26:48;;;;;;;5.10;4.60;;;16.40;37.00;;;16.66;31.35;95478.09;5075119;28;20539;-58
2022/01/17 08:29:15;;;;;;;9.63;6.43;;;16.40;38.40;;;16.72;30.44;95514.63;5076747;28;20455;-57
2022/01/17 08:31:46;;;;;;;14.70;8.47;;;16.40;37.50;;;16.79;30.16;95544.88;5080342;28;20577;-58
2022/01/17 08:34:13;;;;;;;7.43;6.60;;;16.40;37.90;;;16.88;30.72;95563.53;5072808;28;20866;-57
2022/01/17 08:36:41;;;;;;;15.97;6.93;;;16.50;38.10;;;16.96;30.98;95577.69;5075618;28;21034;-58
2022/01/17 08:39:10;;;;;;;14.60;8.03;;;16.60;39.10;;;17.01;30.81;95577.19;5077141;28;20497;-57
2022/01/17 08:41:38;;;;;;;10.70;7.73;;;16.60;37.70;;;17.03;28.81;95535.31;5077727;28;20469;-58
2022/01/17 08:44:06;;;;;;;9.60;6.20;;;16.60;35.10;;;17.02;30.01;95525.69;5079458;28;20466;-57
2022/01/17 08:46:33;;;;;;;9.17;7.03;;;16.60;36.70;;;17.09;27.27;95524.03;5081903;28;20845;-57
2022/01/17 08:49:02;;;;;;;10.77;7.17;;;16.70;34.40;;;17.03;27.96;95495.47;5078840;28;20446;-58
2022/01/17 08:51:29;;;;;;;9.90;7.37;;;16.70;34.60;;;16.99;30.11;95488.81;5081677;28;20475;-58
2022/01/17 08:53:56;;;;;;;9.67;8.10;;;16.60;37.00;;;17.04;28.38;95457.28;5078164;28;20540;-58
2022/01/17 08:56:27;;;;;;;13.47;7.67;;;16.60;35.50;;;17.12;29.68;95425.38;5075063;28;20540;-59
2022/01/17 08:58:55;;;;;;;13.43;7.13;;;16.70;36.60;;;17.30;29.36;95432.31;5076861;28;20783;-57
2022/01/17 09:01:23;;;;;;;13.93;10.00;;;16.80;36.30;;;17.50;29.65;95438.13;5080644;28;20585;-58
2022/01/17 09:03:50;;;;;;;25.00;13.60;;;17.00;36.30;;;17.62;27.76;95428.78;5082997;28;20499;-57
2022/01/17 09:06:19;;;;;;;14.87;10.47;;;17.20;35.10;;;17.68;28.35;95384.72;5080755;28;20493;-59
2022/01/17 09:08:46;;;;;;;28.53;14.40;;;17.30;35.70;;;17.76;28.08;95379.38;5079386;28;20450;-58
2022/01/17 09:11:14;;;;;;;32.47;19.73;;;17.30;35.00;;;17.82;28.96;95388.50;5081119;28;20462;-58
2022/01/17 09:13:42;;;;;;;23.07;17.17;;;17.40;35.80;;;17.88;29.59;95386.00;5077941;28;20465;-58
2022/01/17 09:16:09;;;;;;;14.13;11.20;;;17.50;36.50;;;17.96;28.91;95401.09;5079992;28;20869;-59
2022/01/17 09:18:37;;;;;;;12.77;9.60;;;17.60;35.90;;;18.06;27.99;95392.91;5080651;28;21041;-59
2022/01/17 09:21:05;;;;;;;14.13;8.13;;;17.70;34.50;;;17.94;27.77;95400.47;5081581;28;20943;-60
2022/01/17 09:23:34;;;;;;;9.60;6.77;;;17.50;33.60;;;17.86;27.70;95381.81;5081288;28;20962;-58
2022/01/17 09:26:01;;;;;;;15.03;6.50;;;17.50;34.00;;;17.84;28.77;95389.97;5078851;28;20462;-58
2022/01/17 09:28:28;;;;;;;11.63;7.77;;;17.40;34.80;;;17.90;27.28;95389.31;5080126;28;20458;-58
2022/01/17 09:30:56;;;;;;;16.13;7.97;;;17.40;34.00;;;17.89;27.42;95395.66;5078396;28;20482;-59
2022/01/17 09:33:23;;;;;;;24.80;9.00;;;17.40;34.10;;;17.83;29.01;95398.97;5081445;28;20462;-59
2022/01/17 09:35:51;;;;;;;20.90;12.40;;;17.40;35.30;;;17.81;26.48;95392.16;5079902;28;20471;-59
2022/01/17 09:38:18;;;;;;;30.17;15.43;;;17.40;33.50;;;17.71;27.95;95416.31;5081482;28;20485;-59
2022/01/17 09:40:47;;;;;;;15.13;10.67;;;17.30;34.40;;;17.66;28.38;95392.88;5076134;28;20985;-58
2022/01/17 09:43:14;;;;;;;13.63;9.60;;;17.20;34.90;;;17.68;28.89;95411.31;5080257;28;20501;-60
2022/01/17 09:45:42;;;;;;;13.07;9.03;;;17.20;35.60;;;17.52;27.03;95412.19;5072983;28;20758;-59
2022/01/17 09:48:14;;;;;;;13.80;11.30;;;17.10;33.70;;;17.30;27.39;95392.44;5082419;28;20458;-58
2022/01/17 09:50:57;;;;;;;21.50;12.13;;;16.90;34.20;;;17.20;29.42;95414.72;5080206;28;20535;-57
2022/01/17 09:53:25;;;;;;;22.67;11.60;;;16.80;36.20;;;17.18;28.70;95416.72;5080237;28;20430;-58
2022/01/17 09:55:55;;;;;;;12.93;10.60;;;16.70;35.90;;;17.20;28.56;95425.34;5078671;28;20471;-58
2022/01/17 09:58:22;;;;;;;22.17;8.70;;;16.70;35.60;;;17.07;29.63;95427.69;5080631;28;20481;-58
2022/01/17 10:00:50;;;;;;;23.60;6.80;;;16.60;36.20;;;16.91;28.91;95448.94;5076186;28;20459;-58
2022/01/17 10:03:17;;;;;;;13.23;9.50;;;16.50;36.60;;;16.65;29.40;95416.19;5078281;28;20446;-58
2022/01/17 10:05:45;;;;;;;20.83;9.83;;;16.30;36.30;;;16.32;29.08;95431.19;5073413;28;20470;-58
2022/01/17 10:08:15;;;;;;;9.80;6.37;;;16.00;35.90;;;16.09;29.97;95439.72;5083655;28;20994;-58
2022/01/17 10:10:46;;;;;;;7.93;4.47;;;15.70;36.60;;;15.92;29.87;95443.31;5075414;28;20922;-58
2022/01/17 10:13:20;;;;;;;17.07;5.13;;;15.60;36.80;;;15.62;30.03;95444.63;5076930;28;20504;-58
2022/01/17 10:16:02;;;;;;;7.20;5.00;;;15.30;37.10;;;15.35;30.61;95455.22;5077202;28;20498;-58
2022/01/17 10:18:36;;;;;;;6.63;5.87;;;15.00;37.60;;;14.96;31.28;95447.63;5075857;28;20474;-58
2022/01/17 10:21:07;;;;;;;4.10;3.60;;;14.70;38.10;;;14.65;31.36;95432.13;5077242;28;20512;-57
2022/01/17 10:29:33;;;;;;;6.67;3.60;;;14.10;38.70;;;14.69;31.33;95433.47;5044228;28;20450;-58
2022/01/17 10:34:55;;;;;;;4.87;3.80;;;14.20;39.00;;;14.84;31.63;95441.75;5071859;28;20422;-58
2022/01/17 10:37:24;;;;;;;5.30;4.50;;;14.40;39.00;;;15.22;31.64;95420.34;5077076;28;20456;-56